Terminal Aerodrome Forecast
Issued by NWS

Home | Current Version | Previous Version | Text Only | Print | Product List | Glossary On
Versions: 1 2 3 4 5 6 7 8 9 10 11 12 13 14
352
FTPA31 PHFO 292338
TAFHJR
TAF
PHJR 292338Z 3000/3024 13008G14KT P6SM FEW030 SCT045
     FM300400 06006KT P6SM FEW040
     FM302100 13008G14KT P6SM FEW020 SCT045=

USA.gov is the U.S. government's official web portal to all federal, state and local government web resources and services.